Overview Statistics Trail Chart Weather Telemetry Raw packets
 

This is the latest recevied weather packets stored in our database for station/object EA2RCU-15. If no packets are shown the sender has not sent any weather packets the latest 10 day(s).

<< 82 83 84 85 86 87 88 >>
Time Temp. Humidity Pressure Rain* Wind** Luminosity Snow
1788022204 36.67° C 13% 1003 hPa 0 mm - - -
1788021904 37.22° C 13% 1003 hPa 0 mm - - -
1788021603 33.89° C 14% 1002 hPa 0 mm - - -
1788021304 37.78° C 13% 1002 hPa 0 mm - - -
1788021004 37.78° C 13% 1002 hPa 0 mm - - -
1788020704 38.33° C 10% 1002 hPa 0 mm - - -
1788020404 41.11° C 9% 1002 hPa 0 mm - - -
1788020104 41.11° C 9% 1002 hPa 0 mm - - -
1788019804 41.67° C 11% 1002 hPa 0 mm - - -
1788019504 41.67° C 9% 1002 hPa 0 mm - - -
1788019203 41.11° C 9% 1002 hPa 0 mm - - -
1788018904 41.11° C 9% 1002 hPa 0 mm - - -
1788018604 41.11° C 9% 1002 hPa 0 mm - - -
1788018303 42.78° C 8% 1002 hPa 0 mm - - -
1788018004 43.33° C 8% 1002 hPa 0 mm - - -
1788017704 41.11° C 9% 1002 hPa 0 mm - - -
1788017404 38.33° C 10% 1002 hPa 0 mm - - -
1788017103 40.56° C 9% 1002 hPa 0 mm - - -
1788016804 39.44° C 9% 1002 hPa 0 mm - - -
1788016511 37.22° C 11% 1002 hPa 0 mm - - -
1788016204 38.33° C 12% 1002 hPa 0 mm - - -
1788015909 36.11° C 15% 1002 hPa 0 mm - - -
1788015604 32.78° C 17% 1002 hPa 0 mm - - -
1788015304 31.67° C 18% 1002 hPa 0 mm - - -
1788015004 31.11° C 18% 1002 hPa 0 mm - - -

* Rain latest hour (hover to see other rain measurements)
** Current wind speed in m/s (hover to see current wind gust speed)